createdAt,value
2018-03-21T00:01:55.005Z,3.70
2018-03-21T00:04:23.263Z,6.93
2018-03-21T00:06:51.540Z,5.30
2018-03-21T00:09:19.837Z,5.40
2018-03-21T00:11:48.070Z,8.50
2018-03-21T00:14:16.335Z,4.13
2018-03-21T00:16:44.591Z,8.20
2018-03-21T00:19:13.166Z,5.70
2018-03-21T00:21:41.431Z,10.13
2018-03-21T00:24:09.699Z,6.10
2018-03-21T00:26:37.963Z,7.97
2018-03-21T00:29:06.214Z,6.57
2018-03-21T00:31:34.478Z,6.23
2018-03-21T00:34:02.740Z,6.77
2018-03-21T00:36:31.005Z,8.13
2018-03-21T00:38:59.270Z,7.27
2018-03-21T00:41:27.535Z,9.10
2018-03-21T00:43:55.799Z,8.10
2018-03-21T00:46:24.060Z,5.50
2018-03-21T00:48:52.323Z,7.13
2018-03-21T00:51:20.587Z,6.37
2018-03-21T00:53:48.859Z,11.40
2018-03-21T00:56:17.134Z,6.67
2018-03-21T00:58:45.391Z,8.63
2018-03-21T01:04:11.145Z,9.63
2018-03-21T01:06:39.417Z,9.63
2018-03-21T01:09:07.689Z,7.33
2018-03-21T01:11:35.973Z,8.50
2018-03-21T01:14:04.245Z,8.43
2018-03-21T01:16:32.521Z,7.30
2018-03-21T01:19:00.803Z,7.07
2018-03-21T01:21:29.086Z,9.50
2018-03-21T01:23:57.361Z,8.87
2018-03-21T01:26:25.650Z,8.03
2018-03-21T01:28:53.931Z,5.50
2018-03-21T01:31:22.208Z,11.87
2018-03-21T01:33:50.484Z,5.37
2018-03-21T01:36:18.767Z,9.83
2018-03-21T01:38:47.043Z,7.07
2018-03-21T01:41:15.314Z,12.97
2018-03-21T01:43:43.596Z,8.17
2018-03-21T01:46:11.867Z,5.63
2018-03-21T01:48:40.148Z,12.10
2018-03-21T01:51:08.429Z,9.53
2018-03-21T01:53:36.697Z,8.00
2018-03-21T01:56:04.989Z,7.70
2018-03-21T01:58:33.259Z,7.03
2018-03-21T02:01:01.537Z,7.43
2018-03-21T02:03:29.816Z,7.23
2018-03-21T02:05:58.093Z,4.33
2018-03-21T02:08:26.369Z,6.03
2018-03-21T02:10:54.654Z,8.40
2018-03-21T02:13:22.933Z,4.90
2018-03-21T02:15:51.194Z,6.90
2018-03-21T02:18:19.475Z,4.57
2018-03-21T02:20:47.741Z,4.83
2018-03-21T02:23:16.020Z,7.10
2018-03-21T02:25:44.294Z,7.47
2018-03-21T02:28:12.574Z,4.57
2018-03-21T02:30:40.866Z,5.67
2018-03-21T02:33:09.125Z,4.70
2018-03-21T02:35:37.405Z,7.23
2018-03-21T02:38:05.670Z,3.93
2018-03-21T02:40:33.949Z,7.17
2018-03-21T02:43:21.964Z,6.57
2018-03-21T02:45:50.284Z,3.07
2018-03-21T02:48:18.514Z,7.43
2018-03-21T02:50:46.793Z,4.00
2018-03-21T02:53:15.063Z,8.80
2018-03-21T02:55:43.342Z,7.80
2018-03-21T02:58:11.609Z,3.70
2018-03-21T03:00:41.106Z,5.73
2018-03-21T03:03:09.382Z,10.20
2018-03-21T03:05:37.705Z,6.00
2018-03-21T03:08:05.952Z,8.10
2018-03-21T03:10:34.215Z,5.80
2018-03-21T03:13:02.488Z,6.87
2018-03-21T03:15:30.753Z,7.07
2018-03-21T03:17:59.040Z,6.57
2018-03-21T03:20:27.305Z,6.53
2018-03-21T03:22:55.593Z,6.50
2018-03-21T03:25:23.868Z,6.57
2018-03-21T03:27:52.158Z,6.67
2018-03-21T03:30:20.424Z,4.23
2018-03-21T03:32:48.698Z,7.37
2018-03-21T03:35:16.982Z,4.40
2018-03-21T03:37:45.253Z,4.57
2018-03-21T03:40:13.530Z,5.77
2018-03-21T03:42:41.798Z,7.23
2018-03-21T03:45:10.082Z,5.53
2018-03-21T03:47:38.354Z,6.10
2018-03-21T03:50:06.649Z,6.07
2018-03-21T03:52:34.926Z,5.00
2018-03-21T03:55:03.201Z,7.93
2018-03-21T03:57:31.485Z,7.23
2018-03-21T03:59:59.765Z,10.30
2018-03-21T04:02:28.049Z,7.10
2018-03-21T04:04:56.319Z,8.93
2018-03-21T04:07:24.598Z,6.47
2018-03-21T04:09:52.869Z,9.43
2018-03-21T04:12:21.172Z,7.50
2018-03-21T04:14:49.470Z,7.03
2018-03-21T04:17:17.746Z,11.57
2018-03-21T04:19:46.022Z,8.77
2018-03-21T04:22:14.292Z,4.73
2018-03-21T04:24:42.577Z,7.37
2018-03-21T04:27:10.848Z,5.40
2018-03-21T04:29:39.130Z,4.93
2018-03-21T04:32:07.397Z,5.70
2018-03-21T04:34:35.696Z,8.47
2018-03-21T04:37:03.973Z,8.77
2018-03-21T04:39:32.248Z,6.13
2018-03-21T04:42:00.524Z,6.17
2018-03-21T04:44:39.007Z,4.27
2018-03-21T04:47:08.946Z,6.80
2018-03-21T04:49:37.213Z,5.97
2018-03-21T04:52:05.492Z,10.07
2018-03-21T04:54:33.769Z,6.23
2018-03-21T04:57:02.303Z,5.40
2018-03-21T04:59:30.596Z,8.20
2018-03-21T05:01:58.861Z,9.07
2018-03-21T05:04:27.143Z,7.53
2018-03-21T05:06:55.405Z,8.20
2018-03-21T05:09:23.681Z,8.13
2018-03-21T05:11:51.957Z,3.80
2018-03-21T05:14:20.237Z,6.30
2018-03-21T05:16:48.513Z,10.83
2018-03-21T05:19:16.802Z,5.27
2018-03-21T05:21:45.078Z,5.03
2018-03-21T05:24:13.354Z,10.93
2018-03-21T05:26:41.642Z,4.50
2018-03-21T05:29:09.913Z,9.60
2018-03-21T05:31:38.199Z,6.33
2018-03-21T05:34:06.482Z,9.20
2018-03-21T05:36:34.769Z,11.63
2018-03-21T05:39:03.033Z,7.57
2018-03-21T05:41:33.301Z,6.43
2018-03-21T05:44:01.561Z,6.90
2018-03-21T05:46:29.836Z,10.23
2018-03-21T05:48:58.557Z,7.87
2018-03-21T05:51:26.831Z,8.63
2018-03-21T05:53:55.969Z,6.77
2018-03-21T05:56:24.245Z,10.43
2018-03-21T05:58:52.530Z,10.80
2018-03-21T06:01:20.805Z,8.10
2018-03-21T06:03:49.097Z,10.70
2018-03-21T06:06:17.365Z,7.83
2018-03-21T06:08:45.694Z,8.63
2018-03-21T06:11:13.917Z,5.80
2018-03-21T06:13:42.189Z,10.23
2018-03-21T06:16:10.487Z,16.73
2018-03-21T06:18:38.760Z,10.23
2018-03-21T06:21:07.050Z,10.13
2018-03-21T06:23:35.322Z,8.73
2018-03-21T06:26:03.617Z,12.30
2018-03-21T06:28:31.894Z,13.27
2018-03-21T06:31:00.181Z,10.33
2018-03-21T06:33:28.468Z,13.37
2018-03-21T06:35:56.761Z,12.10
2018-03-21T06:38:25.033Z,11.70
2018-03-21T06:40:53.313Z,14.50
2018-03-21T06:43:21.602Z,12.57
2018-03-21T06:45:49.931Z,7.83
2018-03-21T06:48:20.156Z,13.77
2018-03-21T06:50:48.428Z,15.97
2018-03-21T06:53:16.705Z,9.13
2018-03-21T06:55:45.944Z,10.60
2018-03-21T06:58:14.342Z,12.30
2018-03-21T07:00:42.641Z,13.70
2018-03-21T07:03:10.913Z,12.77
2018-03-21T07:05:39.202Z,11.13
2018-03-21T07:08:20.893Z,12.70
2018-03-21T07:10:49.199Z,11.13
2018-03-21T07:13:36.441Z,10.47
2018-03-21T07:16:22.456Z,8.57
2018-03-21T07:18:50.747Z,12.77
2018-03-21T07:21:19.028Z,11.23
2018-03-21T07:23:51.904Z,14.07
2018-03-21T07:26:20.207Z,12.10
2018-03-21T07:28:48.492Z,12.70
2018-03-21T07:31:16.770Z,9.43
2018-03-21T07:33:45.058Z,13.10
2018-03-21T07:36:13.342Z,17.03
2018-03-21T07:38:41.634Z,11.53
2018-03-21T07:41:09.932Z,12.03
2018-03-21T07:43:38.225Z,11.23
2018-03-21T07:46:07.517Z,10.57
2018-03-21T07:48:36.745Z,15.20
2018-03-21T07:51:06.970Z,13.70
2018-03-21T07:53:35.257Z,13.33
2018-03-21T07:56:03.545Z,16.90
2018-03-21T07:58:31.825Z,12.23
2018-03-21T08:01:01.037Z,11.70
2018-03-21T08:03:29.321Z,12.33
2018-03-21T08:05:57.620Z,13.77
2018-03-21T08:08:25.925Z,12.80
2018-03-21T08:10:54.329Z,16.40
2018-03-21T08:13:22.635Z,12.47
2018-03-21T08:15:50.986Z,11.00
2018-03-21T08:18:19.288Z,16.33
2018-03-21T08:20:47.587Z,14.70
2018-03-21T08:23:15.878Z,12.13
2018-03-21T08:25:44.180Z,17.97
2018-03-21T08:28:12.466Z,14.13
2018-03-21T08:30:40.761Z,13.27
2018-03-21T08:33:09.057Z,16.03
2018-03-21T08:35:37.350Z,17.00
2018-03-21T08:38:05.691Z,19.20
2018-03-21T08:40:33.933Z,14.03
2018-03-21T08:43:02.225Z,14.07
2018-03-21T08:45:30.517Z,17.00
2018-03-21T08:47:58.814Z,15.07
2018-03-21T08:50:27.121Z,12.17
2018-03-21T08:52:55.411Z,18.10
2018-03-21T08:55:23.713Z,14.67
2018-03-21T08:57:52.001Z,20.83
2018-03-21T09:00:21.294Z,13.97
2018-03-21T09:02:49.585Z,16.70
2018-03-21T09:05:17.869Z,19.33
2018-03-21T09:07:46.201Z,15.27
2018-03-21T09:10:18.446Z,15.77
2018-03-21T09:12:46.743Z,16.50
2018-03-21T09:15:15.025Z,17.87
2018-03-21T09:17:43.409Z,16.50
2018-03-21T09:20:11.693Z,21.53
2018-03-21T09:22:39.990Z,19.47
2018-03-21T09:25:08.268Z,17.63
2018-03-21T09:27:36.589Z,23.23
2018-03-21T09:30:04.918Z,21.83
2018-03-21T09:32:33.472Z,23.07
2018-03-21T09:35:03.695Z,21.17
2018-03-21T09:37:32.028Z,19.73
2018-03-21T09:40:01.202Z,20.10
2018-03-21T09:42:29.490Z,21.43
2018-03-21T09:44:58.702Z,16.40
2018-03-21T09:47:26.991Z,17.23
2018-03-21T09:49:55.287Z,20.80
2018-03-21T09:52:24.483Z,24.43
2018-03-21T09:54:52.778Z,29.17
2018-03-21T09:57:22.001Z,26.23
2018-03-21T10:00:11.604Z,25.47
2018-03-21T10:02:39.885Z,25.47
2018-03-21T10:05:08.175Z,32.30
2018-03-21T10:07:36.464Z,25.73
2018-03-21T10:10:04.757Z,24.77
2018-03-21T10:12:33.036Z,25.03
2018-03-21T10:15:03.257Z,31.70
2018-03-21T10:17:31.533Z,41.87
2018-03-21T10:19:59.829Z,41.37
2018-03-21T10:22:28.114Z,38.37
2018-03-21T10:24:56.399Z,36.10
2018-03-21T10:27:25.001Z,41.67
2018-03-21T10:29:53.294Z,39.00
2018-03-21T10:32:21.621Z,44.70
2018-03-21T10:34:49.901Z,42.60
2018-03-21T10:37:18.294Z,40.23
2018-03-21T10:39:46.582Z,44.90
2018-03-21T10:42:14.878Z,45.07
2018-03-21T10:44:53.480Z,41.80
2018-03-21T10:47:21.732Z,46.97
2018-03-21T10:49:50.352Z,45.00
2018-03-21T10:52:22.152Z,48.90
2018-03-21T10:54:50.436Z,43.50
2018-03-21T10:57:18.788Z,46.23
2018-03-21T10:59:48.018Z,46.13
2018-03-21T11:02:16.306Z,50.80
2018-03-21T11:04:44.604Z,53.47
2018-03-21T11:07:13.122Z,61.63
2018-03-21T11:09:41.401Z,51.77
2018-03-21T11:12:09.721Z,51.33
2018-03-21T11:14:37.997Z,49.13
2018-03-21T11:17:06.282Z,50.47
2018-03-21T11:19:34.588Z,46.33
2018-03-21T11:22:02.875Z,44.97
2018-03-21T11:24:31.169Z,41.17
2018-03-21T11:26:59.457Z,42.33
2018-03-21T11:29:27.745Z,47.30
2018-03-21T11:31:56.025Z,42.73
2018-03-21T11:34:24.320Z,50.50
2018-03-21T11:36:53.577Z,66.03
2018-03-21T11:39:21.864Z,68.60
2018-03-21T11:41:50.150Z,67.60
2018-03-21T11:44:18.441Z,56.83
2018-03-21T11:46:46.746Z,82.53
2018-03-21T11:49:15.050Z,82.50
2018-03-21T11:51:43.337Z,78.73
2018-03-21T11:54:11.645Z,69.10
2018-03-21T11:56:39.929Z,72.87
2018-03-21T11:59:10.234Z,69.97
2018-03-21T12:01:38.521Z,66.83
2018-03-21T12:04:06.801Z,66.83
2018-03-21T12:06:35.097Z,61.73
2018-03-21T12:09:03.389Z,64.03
2018-03-21T12:11:31.703Z,56.53
2018-03-21T12:13:59.969Z,54.93
2018-03-21T12:16:28.272Z,50.53
2018-03-21T12:18:56.563Z,46.63
2018-03-21T12:21:24.848Z,50.33
2018-03-21T12:23:53.142Z,50.83
2018-03-21T12:26:21.438Z,54.97
2018-03-21T12:28:49.724Z,47.67
2018-03-21T12:31:18.013Z,45.70
2018-03-21T12:33:46.301Z,48.57
2018-03-21T12:36:14.605Z,45.37
2018-03-21T12:38:42.889Z,41.17
2018-03-21T12:41:11.194Z,42.57
2018-03-21T12:43:39.482Z,36.07
2018-03-21T12:46:07.773Z,47.03
2018-03-21T12:48:36.060Z,48.10
2018-03-21T12:51:04.343Z,37.23
2018-03-21T12:53:32.627Z,35.77
2018-03-21T12:56:00.939Z,38.30
2018-03-21T12:58:29.269Z,43.03
2018-03-21T13:00:57.556Z,38.00
2018-03-21T13:03:33.798Z,42.63
2018-03-21T13:06:02.081Z,37.97
2018-03-21T13:08:30.378Z,31.53
2018-03-21T13:10:58.652Z,39.80
2018-03-21T13:13:26.949Z,36.67
2018-03-21T13:15:55.246Z,39.97
2018-03-21T13:18:33.477Z,36.23
2018-03-21T13:21:01.752Z,37.03
2018-03-21T13:23:30.072Z,38.83
2018-03-21T13:25:58.368Z,31.90
2018-03-21T13:28:26.653Z,32.03
2018-03-21T13:30:54.952Z,32.50
2018-03-21T13:33:23.239Z,27.23
2018-03-21T13:35:51.546Z,25.43
2018-03-21T13:38:19.829Z,26.53
2018-03-21T13:40:48.129Z,28.70
2018-03-21T13:43:16.414Z,20.20
2018-03-21T13:45:45.737Z,24.47
2018-03-21T13:48:14.009Z,24.37
2018-03-21T13:50:42.458Z,24.47
2018-03-21T13:53:10.754Z,23.13
2018-03-21T13:55:39.048Z,23.83
2018-03-21T13:58:07.334Z,18.40
2018-03-21T14:00:35.620Z,17.97
2018-03-21T14:03:18.975Z,26.07
2018-03-21T14:05:47.307Z,23.57
2018-03-21T14:08:15.577Z,23.97
2018-03-21T14:10:43.897Z,23.40
2018-03-21T14:13:13.157Z,21.07
2018-03-21T14:15:42.890Z,26.33
2018-03-21T14:18:12.369Z,23.77
2018-03-21T14:20:45.938Z,24.20
2018-03-21T14:23:20.221Z,20.33
2018-03-21T14:25:49.540Z,27.17
2018-03-21T14:28:17.838Z,27.47
2018-03-21T14:31:04.884Z,28.37
2018-03-21T14:33:33.221Z,24.97
2018-03-21T14:36:06.719Z,25.17
2018-03-21T14:38:36.037Z,24.93
2018-03-21T14:41:04.343Z,22.17
2018-03-21T14:43:32.639Z,23.20
2018-03-21T14:46:00.952Z,23.30
2018-03-21T14:48:33.784Z,23.90
2018-03-21T14:51:02.086Z,20.77
2018-03-21T14:53:30.371Z,22.83
2018-03-21T14:55:58.647Z,20.87
2018-03-21T14:58:26.944Z,25.23
2018-03-21T15:00:57.256Z,25.07
2018-03-21T15:03:44.844Z,24.00
2018-03-21T15:06:13.057Z,23.47
2018-03-21T15:08:41.356Z,22.87
2018-03-21T15:11:09.641Z,29.87
2018-03-21T15:13:37.959Z,30.73
2018-03-21T15:16:06.250Z,31.17
2018-03-21T15:18:34.686Z,30.20
2018-03-21T15:21:02.968Z,28.57
2018-03-21T15:23:41.502Z,29.97
2018-03-21T15:26:09.793Z,34.73
2018-03-21T15:28:38.077Z,36.83
2018-03-21T15:31:06.375Z,32.53
2018-03-21T15:33:35.730Z,32.17
2018-03-21T15:36:04.017Z,40.33
2018-03-21T15:38:32.305Z,32.60
2018-03-21T15:41:00.619Z,34.97
2018-03-21T15:43:30.845Z,39.20
2018-03-21T15:45:59.143Z,44.70
2018-03-21T15:48:28.461Z,45.50
2018-03-21T15:50:56.769Z,39.30
2018-03-21T15:53:30.773Z,43.83
2018-03-21T15:56:12.766Z,37.83
2018-03-21T15:58:41.061Z,40.90
2018-03-21T16:01:10.439Z,40.77
2018-03-21T16:06:38.428Z,41.17
2018-03-21T16:09:06.725Z,39.20
2018-03-21T16:11:35.099Z,43.77
2018-03-21T16:14:03.385Z,37.47
2018-03-21T16:16:31.685Z,28.50
2018-03-21T16:18:59.974Z,35.73
2018-03-21T16:21:28.279Z,37.87
2018-03-21T16:23:56.566Z,33.53
2018-03-21T16:26:24.870Z,36.70
2018-03-21T16:28:53.161Z,28.97
2018-03-21T16:31:21.463Z,31.33
2018-03-21T16:33:49.773Z,32.33
2018-03-21T16:36:18.066Z,31.33
2018-03-21T16:38:46.367Z,36.77
2018-03-21T16:41:14.654Z,32.73
2018-03-21T16:43:42.947Z,33.50
2018-03-21T16:46:12.241Z,27.80
2018-03-21T16:48:40.545Z,32.27
2018-03-21T16:51:08.833Z,29.37
2018-03-21T16:53:37.119Z,32.13
2018-03-21T16:56:05.438Z,30.97
2018-03-21T16:58:33.727Z,25.53
2018-03-21T17:01:02.034Z,28.53
2018-03-21T17:03:30.317Z,27.50
2018-03-21T17:05:58.606Z,27.50
2018-03-21T17:08:26.895Z,27.63
2018-03-21T17:10:55.221Z,23.20
2018-03-21T17:13:23.515Z,22.00
2018-03-21T17:15:51.797Z,24.17
2018-03-21T17:18:20.113Z,25.47
2018-03-21T17:20:48.389Z,27.33
2018-03-21T17:23:16.676Z,25.80
2018-03-21T17:25:44.965Z,21.73
2018-03-21T17:28:13.265Z,24.90
2018-03-21T17:30:41.569Z,21.53
2018-03-21T17:33:09.847Z,22.87
2018-03-21T17:35:38.162Z,20.10
2018-03-21T17:38:06.442Z,23.87
2018-03-21T17:40:34.725Z,24.67
2018-03-21T17:43:03.025Z,21.23
2018-03-21T17:45:31.310Z,21.33
2018-03-21T17:47:59.633Z,18.10
2018-03-21T17:50:27.885Z,22.20
2018-03-21T17:52:56.191Z,20.10
2018-03-21T17:55:24.481Z,16.87
2018-03-21T17:57:52.785Z,21.83
2018-03-21T18:00:21.092Z,15.13
2018-03-21T18:02:49.409Z,20.50
2018-03-21T18:05:17.706Z,29.10
2018-03-21T18:07:46.094Z,28.83
2018-03-21T18:10:14.382Z,23.83
2018-03-21T18:12:42.661Z,18.57
2018-03-21T18:15:10.963Z,20.30
2018-03-21T18:17:39.255Z,17.80
2018-03-21T18:20:07.538Z,19.70
2018-03-21T18:22:42.948Z,17.53
2018-03-21T18:25:11.222Z,19.87
2018-03-21T18:27:39.509Z,17.77
2018-03-21T18:30:07.799Z,24.13
2018-03-21T18:32:36.118Z,15.33
2018-03-21T18:35:09.330Z,30.80
2018-03-21T18:37:37.638Z,22.13
2018-03-21T18:40:05.925Z,28.90
2018-03-21T18:42:34.208Z,26.07
2018-03-21T18:45:02.505Z,21.00
2018-03-21T18:47:30.792Z,24.60
2018-03-21T18:49:59.072Z,18.40
2018-03-21T18:52:27.363Z,20.00
2018-03-21T18:54:55.681Z,27.93
2018-03-21T18:57:23.965Z,29.20
2018-03-21T18:59:52.285Z,29.50
2018-03-21T19:02:20.554Z,26.90
2018-03-21T19:04:48.838Z,25.80
2018-03-21T19:07:17.133Z,30.17
2018-03-21T19:09:45.413Z,31.07
2018-03-21T19:12:13.708Z,30.37
2018-03-21T19:14:41.994Z,28.60
2018-03-21T19:17:10.306Z,28.10
2018-03-21T19:19:38.646Z,29.47
2018-03-21T19:22:06.931Z,33.23
2018-03-21T19:24:35.176Z,39.07
2018-03-21T19:27:03.473Z,33.07
2018-03-21T19:29:31.770Z,36.77
2018-03-21T19:32:00.058Z,36.70
2018-03-21T19:34:28.377Z,39.67
2018-03-21T19:36:56.656Z,39.33
2018-03-21T19:39:24.940Z,35.17
2018-03-21T19:41:53.233Z,34.57
2018-03-21T19:44:21.526Z,36.57
2018-03-21T19:46:49.822Z,34.23
2018-03-21T19:52:11.455Z,32.60
2018-03-21T19:54:39.803Z,32.77
2018-03-21T19:57:08.150Z,34.40
2018-03-21T19:59:36.429Z,29.50
2018-03-21T20:02:04.716Z,31.30
2018-03-21T20:04:33.023Z,34.87
2018-03-21T20:07:01.307Z,37.83
2018-03-21T20:09:29.600Z,36.97
2018-03-21T20:11:57.889Z,38.03
2018-03-21T20:14:26.188Z,35.83
2018-03-21T20:16:54.478Z,37.83
2018-03-21T20:19:22.766Z,37.83
2018-03-21T20:21:51.060Z,33.70
2018-03-21T20:24:19.348Z,37.20
2018-03-21T20:26:47.637Z,32.00
2018-03-21T20:29:15.913Z,36.70
2018-03-21T20:31:44.209Z,33.23
2018-03-21T20:34:12.498Z,41.27
2018-03-21T20:36:40.856Z,32.13
2018-03-21T20:39:09.071Z,46.50
2018-03-21T20:41:37.362Z,31.97
2018-03-21T20:44:05.656Z,35.17
2018-03-21T20:46:33.948Z,36.20
2018-03-21T20:49:02.241Z,33.73
2018-03-21T20:51:30.540Z,39.97
2018-03-21T20:53:58.834Z,38.70
2018-03-21T20:56:27.113Z,34.93
2018-03-21T20:58:55.401Z,32.73
2018-03-21T21:01:23.689Z,41.47
2018-03-21T21:03:51.977Z,32.13
2018-03-21T21:06:20.277Z,37.77
2018-03-21T21:08:48.590Z,38.03
2018-03-21T21:11:16.869Z,41.07
2018-03-21T21:13:45.159Z,33.53
2018-03-21T21:16:13.449Z,40.00
2018-03-21T21:18:41.756Z,36.13
2018-03-21T21:21:10.037Z,35.80
2018-03-21T21:23:38.334Z,36.70
2018-03-21T21:26:06.643Z,36.37
2018-03-21T21:28:35.913Z,40.70
2018-03-21T21:31:04.195Z,34.07
2018-03-21T21:33:36.397Z,34.33
2018-03-21T21:36:10.058Z,36.43
2018-03-21T21:38:39.300Z,45.63
2018-03-21T21:41:07.565Z,39.13
2018-03-21T21:43:35.851Z,47.97
2018-03-21T21:49:03.944Z,38.43
2018-03-21T21:51:32.245Z,37.87
2018-03-21T21:54:02.494Z,37.27
2018-03-21T21:56:30.789Z,40.83
2018-03-21T21:58:59.066Z,35.30
2018-03-21T22:01:27.348Z,40.20
2018-03-21T22:04:04.120Z,40.13
2018-03-21T22:06:32.411Z,40.40
2018-03-21T22:09:01.767Z,37.30
2018-03-21T22:11:30.041Z,40.13
2018-03-21T22:13:58.345Z,38.00
2018-03-21T22:16:26.628Z,39.57
2018-03-21T22:19:05.325Z,46.90
2018-03-21T22:21:33.629Z,43.80
2018-03-21T22:24:01.913Z,39.97
2018-03-21T22:26:30.213Z,40.30
2018-03-21T22:28:58.500Z,46.00
2018-03-21T22:31:26.796Z,41.77
2018-03-21T22:33:55.083Z,51.80
2018-03-21T22:36:23.380Z,44.60
2018-03-21T22:38:51.660Z,42.20
2018-03-21T22:41:19.957Z,46.33
2018-03-21T22:43:48.247Z,37.10
2018-03-21T22:46:34.347Z,46.60
2018-03-21T22:49:02.645Z,40.17
2018-03-21T22:51:30.924Z,42.90
2018-03-21T22:53:59.209Z,39.43
2018-03-21T22:56:27.485Z,38.37
2018-03-21T22:58:55.797Z,41.20
2018-03-21T23:01:24.086Z,41.80
2018-03-21T23:03:52.401Z,38.43
2018-03-21T23:06:20.691Z,45.37
2018-03-21T23:08:48.977Z,35.10
2018-03-21T23:11:17.290Z,41.90
2018-03-21T23:13:45.565Z,40.20
2018-03-21T23:16:13.868Z,42.53
2018-03-21T23:18:42.150Z,41.20
2018-03-21T23:21:10.439Z,38.10
2018-03-21T23:23:38.721Z,45.70
2018-03-21T23:26:07.010Z,40.40
2018-03-21T23:28:35.293Z,38.63
2018-03-21T23:31:03.577Z,39.70
2018-03-21T23:33:31.873Z,36.57
2018-03-21T23:36:00.160Z,41.87
2018-03-21T23:38:28.451Z,38.10
2018-03-21T23:40:56.750Z,42.73
2018-03-21T23:43:25.046Z,43.90
2018-03-21T23:45:53.342Z,42.10
2018-03-21T23:48:21.637Z,43.63
2018-03-21T23:50:49.926Z,44.40
2018-03-21T23:53:18.222Z,47.87
2018-03-21T23:55:46.530Z,43.27
2018-03-21T23:58:14.810Z,44.37
